KSBAKAVX

Guest
Details From KSBA - Santa Barbara Mun
To KAVX - Catalina
Flight Number -
Tags generated
Created
Modified
Stats Distance 94 nm / 174 km
Max Altitude 8,100 ft / 2,469 m
Waypoints 3
Social Downloads 3
Likes 0
Share VATSIM

Download

Looking for another format? Having issues loading an existing format? Contact us
Advertisement - Login to hide

Notes

Basic altitude profile: - Ascent Rate: 2500ft/min - Ascent Speed: 250kts - Cruise Altitude: 35000ft - Cruise Speed: 420kts - Descent Rate: 1500ft/min - Descent Speed: 250kts Options: - Use NATs: yes - Use PACOTS: yes - Use low airways: yes - Use high airways: yes

Route

KSBA WEEZL KAVX

ID Type Via Altitude Latitude Longitude Leg Dist Tot Dist Heading (true) Name
O KSBA APT - 0 ft / 0 m 34.42596˚ -119.84072˚ - 0 nm - Santa Barbara Mun
WEEZL FIX - 8,100 ft / 2,469 m 33.79093˚ -119.01553˚ 56 nm 56 nm 133° / 133° -
O KAVX APT - 0 ft / 0 m 33.40466˚ -118.41588˚ 37 nm 93 nm 128° / 128° Catalina

Altitude Profile

Advertisement - Login to hide

KSBA

Details ICAO KSBA (SBA)
Name Santa Barbara Mun
Region United States
Timezone America/Los_Angeles (UTC-8.0)
Stats Elevation 13 ft / 4 m (AMSL)
Location 34.425961° -119.840724°
Runways 3
Magnetic Variation 12.372° E

METAR

KSBA 120353Z 07003KT 6SM HZ FU CLR 11/M02 A3018 RMK AO2 SLP219 T01111022

Decode

TAF

KSBA 112347Z 1200/1224 25008KT 4SM FU BKN040 BKN250 TEMPO 1200/1202 6SM FU SCT040 SCT250 FM120200 VRB03KT 4SM FU BKN040 BKN250 FM122000 24008KT 4SM FU BKN040 BKN250

Decode

Departure Runways

ID Width Length Bearing (true) Bearing (mag) Surface Threshold Offset Overrun Length
07 151 ft / 46 m 6,047 ft / 1,843 m 88.54° 76.17° Asphalt 0 ft / 0 m 0 ft / 0 m
15L 75 ft / 23 m 4,182 ft / 1,275 m 165.71° 153.34° Asphalt 217 ft / 66 m 0 ft / 0 m
15R 98 ft / 30 m 4,186 ft / 1,276 m 165.71° 153.34° Asphalt 0 ft / 0 m 0 ft / 0 m
25 151 ft / 46 m 6,047 ft / 1,843 m 268.55° 256.18° Asphalt 0 ft / 0 m 0 ft / 0 m
33L 98 ft / 30 m 4,186 ft / 1,276 m 345.71° 333.34° Asphalt 0 ft / 0 m 0 ft / 0 m
33R 75 ft / 23 m 4,182 ft / 1,275 m 345.72° 333.35° Asphalt 0 ft / 0 m 0 ft / 0 m

KAVX

Details ICAO KAVX (AVX)
Name Catalina
Region United States
Timezone America/Los_Angeles (UTC-8.0)
Stats Elevation 1,601 ft / 488 m (AMSL)
Location 33.404656° -118.415880°
Runways 1
Magnetic Variation 11.902° E

METAR

KAVX 120351Z AUTO 32006KT 10SM CLR 20/M15 A3024 RMK AO2 SLP217 T02001150

Decode

TAF

Not found

Destination Runways

ID Width Length Bearing (true) Bearing (mag) Surface Threshold Offset Overrun Length
04 59 ft / 18 m 3,127 ft / 953 m 54.93° 43.03° Asphalt 131 ft / 40 m 0 ft / 0 m
22 59 ft / 18 m 3,127 ft / 953 m 234.93° 223.03° Asphalt 62 ft / 19 m 0 ft / 0 m

Popular Alternatives